Flight Track Log - Related Links

Times and Time Zones

All times are in EDT time to prevent confusion due to time zone crossing. See the UAL4543 flight status page for this flight to view local times or setup timezone preferences in your user account.

Time Position Orientation Groundspeed Altitude Reporting Facility
EDT Latitude Longitude Course Direction KTS MPH feet Rate Location/Type
Sat 10:40:05 AM 29.5203 -98.4594 117° Southeast 156 180 2,100  Level Houston Center
Sat 10:41:21 AM 29.4864 -98.3836 117° Southeast 243 280 5,500 2,826 Climbing Houston Center
Sat 10:42:23 AM 29.5106 -98.3039 71° East 266 306 8,600 2,613 Climbing Houston Center
Sat 10:43:25 AM 29.5408 -98.2022 71° East 321 369 10,900 2,177 Climbing Houston Center
Sat 10:44:27 AM 29.5550 -98.0894 82° East 362 417 13,100 2,177 Climbing Houston Center
Sat 10:45:29 AM 29.5550 -97.9692 90° East 377 434 15,400 2,049 Climbing Houston Center
Sat 10:46:30 AM 29.5567 -97.8336 89° East 398 458 17,300 1,659 Climbing Houston Center
Sat 10:47:32 AM 29.5561 -97.6994 90° East 416 479 18,800 823 Climbing Houston Center
Sat 10:48:34 AM 29.5556 -97.5608 90° East 428 493 19,000 97 Climbing Houston Center
Sat 10:49:36 AM 29.5553 -97.4158 90° East 449 517 19,000  Level Houston Center
Sat 10:50:37 AM 29.5542 -97.2750 90° East 442 509 19,000  Level Houston Center
Sat 10:51:39 AM 29.5542 -97.1344 90° East 439 505 19,000  Level Houston Center
Sat 10:52:41 AM 29.5536 -96.9914 90° East 442 509 19,000 -435 Level Houston Center
Sat 10:53:43 AM 29.5514 -96.8478 91° East 443 510 18,100 -1,355 Descending Houston Center
Sat 10:54:45 AM 29.5508 -96.7117 90° East 421 484 16,200 -2,122 Descending Houston Center
Sat 10:55:05 AM 29.5500 -96.6461 91° East 412 474 15,200 -2,400 Descending Houston Center
Sat 10:55:30 AM 29.5503 -96.5956 90° East 410 472 14,400 -1,463 Descending Houston Center
Sat 10:55:46 AM 29.5500 -96.5794 91° East 413 475 14,200 -1,967 Descending Houston Center
Sat 10:56:31 AM 29.5475 -96.4617 91° East 401 461 12,400 -2,323 Descending Houston Center
Sat 10:56:48 AM 29.5486 -96.4264 88° East 400 460 11,800 -1,770 Descending Houston Center
Sat 10:57:32 AM 29.5481 -96.3439 90° East 382 440 10,600 -1,548 Descending Houston Center
Sat 10:57:50 AM 29.5458 -96.3081 94° East 375 432 10,200 -590 Descending Houston Center
Sat 10:58:33 AM 29.5464 -96.2242 90° East 347 399 10,000 -290 Descending Houston Center
Sat 10:58:52 AM 29.5447 -96.1975 94° East 352 405 9,900  Descending Houston Center
Sat 10:59:35 AM 29.5669 -96.1233 71° East 327 376 10,000  Climbing Houston Center
Sat 10:59:54 AM 29.5797 -96.1008 57° Northeast 338 389 9,900  Descending Houston Center
Sat 11:00:42 AM 29.6194 -96.0239 59° Northeast 338 389 10,000 -408 Climbing Houston Center
Sat 11:01:37 AM 29.6797 -95.9689 38° Northeast 292 336 9,200 -947 Descending Houston Center
Sat 11:01:58 AM 29.6967 -95.9503 44° Northeast 291 335 8,800 -1,548 Descending Houston Center
Sat 11:02:39 AM 29.7431 -95.9017 42° Northeast 283 326 7,600 -1,475 Descending Houston Center
Sat 11:02:59 AM 29.7547 -95.8864 49° Northeast 289 333 7,300 -1,180 Descending Houston Center
Sat 11:03:40 AM 29.7942 -95.8403 45° Northeast 264 304 6,400 -1,065 Descending Houston Center
Sat 11:04:01 AM 29.8067 -95.8269 43° Northeast 267 307 6,200 -393 Descending Houston Center
Sat 11:04:41 AM 29.8475 -95.7789 46° Northeast 267 307 6,000 -194 Descending Houston Center
Sat 11:05:03 AM 29.8603 -95.7644 44° Northeast 271 312 6,000  Level Houston Center
Sat 11:05:48 AM 29.9106 -95.7064 45° Northeast 273 314 6,000  Level Houston Center
Sat 11:06:05 AM 29.9144 -95.7031 37° Northeast 272 313 6,000 -321 Level Houston Center
Sat 11:06:44 AM 29.9581 -95.6525 45° Northeast 265 305 5,700 -871 Descending Houston Center
Sat 11:07:07 AM 29.9753 -95.6322 46° Northeast 262 302 5,100 -1,475 Descending Houston Center
Sat 11:07:45 AM 29.9944 -95.5881 63° Northeast 241 277 4,200 -1,355 Descending Houston Center
Sat 11:08:09 AM 29.9942 -95.5608 91° East 244 281 3,700 -1,279 Descending Houston Center
Sat 11:08:46 AM 29.9919 -95.5136 93° East 220 253 2,900 -1,180 Descending Houston Center
Sat 11:09:10 AM 29.9936 -95.4897 85° East 228 262 2,500 -1,000 Descending Houston Center

Login

Don't have an account? Register now (free) for customized features, flight alerts, and more!